Bodensee (Kressbronn): 13,3°C  -  Teich der Wetterzentrale Bad Schussenried: 14,7°C  
24.10.2020Höhe
ü. NN
ZeitTemperatur (°C)Nieder-
schlag
Luft-
feuchte
Luft-
druck
Wind
StationaktuellMinimumMaximumaktuellMaximum
Aldingen654 m00:0110,810,8 (23:52)10,8 (14:04)0,0 l/m²93%1016,93,7 km/h (1 Bft) S-SW14,8 km/h (3 Bft) S (01:04)
Allmendingen541 m00:0012,412,4 (06:30)12,4 (14:55)0,0 l/m²86%1015,19,7 km/h (2 Bft) SW17,7 km/h (3 Bft) W-SW (18:40)
Amstetten-Reutti663 m00:0011,611,6 (08:25)11,6 (15:10)0,0 l/m²96%1015,09,7 km/h (2 Bft) SW22,5 km/h (4 Bft) SW (20:15)
Amtzell-Grenis677 m00:0010,910,9 (00:00)10,9 (00:00)0,0 l/m²76%1017,76,4 km/h (2 Bft) W-SW6,4 km/h (2 Bft) W-SW (00:00)
Bachhagel489 m00:0012,4- (-)12,4 (01:00)0,0 l/m²96%1018,917,6 km/h (3 Bft) SW9,7 km/h (2 Bft) N-NO (01:00)
Bad Krozingen233 m00:0013,613,6 (08:25)13,6 (13:30)0,0 l/m²94%1017,312,1 km/h (3 Bft) S-SW25,9 km/h (4 Bft) S-SW (16:20)
Bad Krozingen-Tunsel229 m00:0013,613,6 (08:20)13,6 (01:35)0,0 l/m²92%1016,617,2 km/h (3 Bft) N-NO24,9 km/h (4 Bft) NW (17:05)
Bad Saulgau595 m00:0011,411,4 (07:30)11,4 (11:55)0,0 l/m²93%1014,916,1 km/h (3 Bft) W-SW22,5 km/h (4 Bft) SW (21:45)
Bad Saulgau, Mannsgrab588 m00:0111,6- (-)11,6 (01:00)0,0 l/m²89%1017,613,0 km/h (3 Bft) S-SW13,0 km/h (3 Bft) S-SW (00:00)
Bad Saulgau, SFZ Kälberweide594 m00:0011,7- (-)11,7 (01:00)0,0 l/m²92%1017,116,2 km/h (3 Bft) W9,7 km/h (2 Bft) N-NO (01:00)
Bad Schussenried572 m00:0011,611,6 (00:00)11,6 (00:00)0,0 l/m²98%1014,412,9 km/h (3 Bft) S-SW12,9 km/h (3 Bft) S-SW (00:00)
Bergatreute615 m00:0011,411,5 (00:00)11,5 (00:00)0,0 l/m²98%1014,812,9 km/h (3 Bft) S-SW12,9 km/h (3 Bft) SW (00:00)
Biberach (Riss), Realschule553 m00:0012,112,1 (00:00)12,1 (00:00)0,0 l/m²95%1016,714,5 km/h (3 Bft) W14,5 km/h (3 Bft) W-SW (00:00)
Burgrieden523 m00:0011,811,8 (00:00)11,8 (00:00)0,0 l/m²92%1015,40,0 km/h (0 Bft) SW0,0 km/h (0 Bft) S (00:00)
Ebersbach579 m00:0012,012,1 (00:00)12,1 (00:00)0,0 l/m²94%1016,917,7 km/h (3 Bft) S-SW17,7 km/h (3 Bft) SW (00:00)
Ebersbach-Boos605 m00:0011,311,4 (00:00)11,4 (00:00)0,0 l/m²97%1016,60,0 km/h (0 Bft) S0,0 km/h (0 Bft) W-SW (00:00)
Ebersbach-Menzenweiler661 m00:0011,211,3 (00:00)11,3 (00:00)0,0 l/m²97%1016,624,1 km/h (4 Bft) SW24,1 km/h (4 Bft) SW (00:00)
Ehingen535 m00:0011,811,8 (00:00)11,8 (00:00)0,0 l/m²93%1015,05,6 km/h (2 Bft) O5,6 km/h (2 Bft) O (00:00)
Erlenmoos645 m00:0011,511,5 (00:00)11,5 (00:00)0,0 l/m²64%1015,822,5 km/h (4 Bft) S-SW22,5 km/h (4 Bft) S (00:00)
Ertingen569 m00:0011,411,4 (00:00)11,4 (00:00)0,0 l/m²97%1015,81,6 km/h (1 Bft) SW1,6 km/h (1 Bft) S-SW (00:00)
Günzburg443 m00:0013,113,1 (00:00)13,1 (00:00)0,0 l/m²91%1012,712,9 km/h (3 Bft) W12,9 km/h (3 Bft) W (00:00)
Höchsten802 m00:0010,110,2 (00:00)10,2 (00:00)0,0 l/m²94%1014,330,6 km/h (5 Bft) SW30,6 km/h (5 Bft) SW (00:00)
Horgenzell618 m00:0011,011,0 (00:00)11,0 (00:00)0,0 l/m²96%1015,519,3 km/h (3 Bft) SW19,3 km/h (3 Bft) S-SW (00:00)
Hoßkirch632 m00:0011,411,4 (00:00)11,4 (00:00)0,0 l/m²95%1015,117,7 km/h (3 Bft) S-SW17,7 km/h (3 Bft) S-SW (00:00)
Isny, Am Dreifingerbach695 m00:0011,811,9 (00:00)11,9 (00:00)0,0 l/m²97%1015,76,4 km/h (2 Bft) S6,4 km/h (2 Bft) S (00:00)
Isny, Weidachweg706 m00:0011,611,6 (00:00)11,6 (00:00)0,2 l/m²91%1018,53,2 km/h (1 Bft) N3,2 km/h (1 Bft) N (00:00)
Kappel-Grafenhausen163 m00:0013,9- (-)13,9 (01:00)0,0 l/m²95%1014,83,2 km/h (1 Bft) S1,4 km/h (1 Bft) S (00:00)
Kirchdorf an der Iller551 m00:0212,012,0 (00:00)12,0 (00:00)0,0 l/m²93%1017,128,8 km/h (5 Bft) W20,9 km/h (4 Bft) W-NW (00:00)
Kißlegg-Staibshof709 m00:0010,810,8 (00:00)10,8 (00:00)0,0 l/m²97%1016,617,7 km/h (3 Bft) SW17,7 km/h (3 Bft) SW (00:00)
Laupheim500 m00:0012,412,4 (00:00)12,4 (00:00)0,0 l/m²91%1014,916,1 km/h (3 Bft) W-SW16,1 km/h (3 Bft) W-SW (00:00)
Leutkirch-Heggelbach670 m00:0011,011,0 (00:00)11,0 (00:00)0,0 l/m²95%1015,414,5 km/h (3 Bft) S14,5 km/h (3 Bft) SW (00:00)
Lindau-Insel420 m00:0012,712,7 (08:50)12,7 (01:35)0,0 l/m²95%1016,50,0 km/h (0 Bft) S-SO20,9 km/h (4 Bft) SO (01:30)
Maierhöfen im Allgäu733 m00:0011,111,2 (00:00)11,2 (00:00)0,0 l/m²95%1016,74,8 km/h (1 Bft) W-SW4,8 km/h (1 Bft) W-SW (00:00)
Maselheim543 m00:0011,811,9 (00:00)11,9 (00:00)0,0 l/m²91%1016,014,5 km/h (3 Bft) S-SW14,5 km/h (3 Bft) W-SW (00:00)
Maselheim-Sulmingen548 m00:0012,012,0 (08:15)12,0 (12:15)0,0 l/m²94%1016,919,3 km/h (3 Bft) SW25,7 km/h (4 Bft) SW (22:30)
Mietingen-Baltringen528 m00:0012,312,3 (00:00)12,3 (00:00)0,0 l/m²90%1016,912,9 km/h (3 Bft) N12,9 km/h (3 Bft) W-SW (00:00)
Mindelheim-Apfeltrach620 m00:0111,511,5 (00:01)11,6 (00:00)0,0 l/m²89%1016,09,7 km/h (2 Bft) S-SW9,7 km/h (2 Bft) S-SW (00:01)
Mittelbiberach577 m00:0011,711,7 (00:00)11,7 (00:00)5,2 l/m²91%1017,28,0 km/h (2 Bft) SW8,0 km/h (2 Bft) SW (00:00)
Neukirch570 m00:0011,811,8 (07:55)11,8 (16:10)0,0 l/m²96%1016,94,8 km/h (1 Bft) SW22,5 km/h (4 Bft) W-SW (20:55)
Ochsenhausen, Birkenstraße583 m00:0012,112,1 (07:55)12,1 (13:10)0,0 l/m²90%1016,30,0 km/h (0 Bft) S-SW0,0 km/h (0 Bft) N (01:00)
Ochsenhausen, Unt. Wiesen575 m00:0012,112,1 (00:00)12,1 (00:00)0,0 l/m²93%1017,219,3 km/h (3 Bft) SW19,3 km/h (3 Bft) W-SW (00:00)
Opfenbach-Göritz561 m00:0011,4- (-)11,4 (01:00)0,0 l/m²94%1014,57,9 km/h (2 Bft) SO7,9 km/h (2 Bft) N-NO (01:00)
Ostrach619 m00:0012,112,1 (00:00)12,1 (00:00)0,0 l/m²94%1014,617,7 km/h (3 Bft) S-SW17,7 km/h (3 Bft) SW (00:00)
Ravensburg, Springerstraße441 m00:0012,812,8 (00:00)12,8 (00:00)0,0 l/m²86%1018,47,6 km/h (2 Bft) W-SW7,6 km/h (2 Bft) W-SW (00:00)
Reichenbach an der Fils343 m00:0012,913,0 (00:00)13,0 (00:00)0,0 l/m²89%1016,93,2 km/h (1 Bft) NW3,2 km/h (1 Bft) NW (00:00)
Reinstetten559 m00:0011,912,0 (00:00)12,0 (00:00)0,0 l/m²92%1016,124,1 km/h (4 Bft) S-SW24,1 km/h (4 Bft) SW (00:00)
Riedlingen530 m00:0011,811,8 (00:00)11,8 (00:00)0,0 l/m²95%1015,90,0 km/h (0 Bft) S-SW0,0 km/h (0 Bft) S-SW (00:00)
Rottweil-Hausen681 m00:0110,9- (-)10,9 (01:00)0,0 l/m²90%1016,79,7 km/h (2 Bft) SW3,2 km/h (1 Bft) N (01:00)
Schemmerhofen520 m00:0012,412,4 (00:00)12,4 (00:00)0,0 l/m²94%1015,120,9 km/h (4 Bft) S-SW20,9 km/h (4 Bft) SW (00:00)
Ummendorf547 m00:0012,012,1 (00:00)12,1 (00:00)0,0 l/m²83%1016,914,5 km/h (3 Bft) SW14,5 km/h (3 Bft) SW (00:00)
Ummendorf-Fischbach558 m00:0011,811,8 (00:00)11,8 (00:00)0,0 l/m²84%1017,011,3 km/h (2 Bft) SW11,3 km/h (2 Bft) S (00:00)
Waldburg707 m00:0010,810,8 (00:00)10,8 (00:00)0,0 l/m²97%1016,34,8 km/h (1 Bft) N4,8 km/h (1 Bft) N (00:00)
Warthausen-Birkenhard581 m00:0111,311,3 (00:00)11,3 (00:00)0,0 l/m²96%1016,122,3 km/h (4 Bft) W-SW15,5 km/h (3 Bft) S-SW (00:00)
Weingarten500 m00:0012,212,2 (00:00)12,2 (00:00)0,0 l/m²94%1016,312,9 km/h (3 Bft) S12,9 km/h (3 Bft) S-SO (00:00)
Winterlingen785 m00:0010,610,6 (00:00)10,6 (00:00)0,0 l/m²97%1013,73,2 km/h (1 Bft) SW3,2 km/h (1 Bft) SW (00:00)

niederschlagsdatenbank | info | login - erfassung

Sollten Sie Interesse haben, an der Niederschlagsdatenbank teilzunehmen, finden Sie > hier < weitere Informationen.
Datum: . . Kalender
Anmerkung:0,0 = nicht messbarer Niederschlag
 -  = kein Niederschlag
 k  = kumulierter Niederschlag

< 07.01.201609.01.2016 >


Niederschlagswerte vom 08.01.2016    -    derzeit 127 Stationen

Die Niederschlagswerte des gewählten Tages lassen sich durch Klicken auf das Datum sortieren.
Die Angaben sind in l/m².

Station05.01.06.01.07.01.08.01.09.01.10.01.11.01.Bemerkung 08.01.
Achstetten Hauptstraße-------
Aichstetten Ulmenstraße 7-------
Aichstetten-Nestbaum Nestbaum-------
Albbruck Furmisstr. 187,05,215,025,46,023,612,2
Wechselhaft, teils starker Regen +7° Nachts +4°
Regen Bodennebel
Allmendingen Querqueviller Ring 6--6,05,82,017,34,0
Regen
Amstetten-Reutti Gassenäcker 130,00,06,20,8-12,06,2
Regen
Schneehöhe: Reste
Aulendorf Steinenbacher Weg 331,55,95,513,01,017,09,8
Regen
Aulendorf-Blönried Heuweg 322,35,56,914,71,120,012,0
Regen
Bachhagel Meisenweg 3-------
Bad Buchau Hanfweiher 1-------
Bad Saulgau Walserweg1,55,05,010,00,517,08,5
Regen
Schneehöhe: Reste
Bad Saulgau-Hochberg Lampertsweiler Straße 122,32,16,012,01,018,810,0
Bad Saulgau-Steinbronnen Forchenhain 6-------
Bad Schussenried Konradstraße1,36,05,711,60,921,67,9
Regen Nieselregen
Bad Schussenried Lortzingstrasse1,55,56,013,01,022,07,0
Regen
Bad Schussenried Klosterstraße1,85,06,011,51,021,88,5
Regen
Bad Schussenried Theodor-Storm-Strasse1,44,85,911,00,920,07,8
Regen Nieselregen
Bad Schussenried-Hopferbach Unterer Öschweg 16/1-8,07,012,01,023,09,0
Regen
Bad Schussenried-Lufthütte Hauptgasse 17-------
Bad Schussenried-Sattenbeuren Ortsstraße 7-------
Bad Schussenried-Schwaigfurt Schwaigfurt 22,27,06,513,21,022,010,5
Bad Waldsee-Haisterkirch Zur Spitzenkapelle 1-----21,5-
Bad Waldsee-Haisterkirch Hittelkofer Straße 1-------
Bad Wurzach-Seibranz Kimpflerhof 2 -------
Baienfurt Untere Bergstrasse 74,08,09,015,03,018,08,0
Regen Schneeregen
Balzheim Hinterm Liess 192,02,04,08,00,518,08,5
Berg-Kleintobel Kleintobel2,27,68,216,21,820,39,4
Regen
Biberach Amriswilstrasse1,03,26,810,00,220,115,8
Regen
Biberach Strölinweg-------
Biberach Erlenweg2,54,56,510,51,019,59,5
Biberach Neue Heimat 5-------
Biberach Mittelbergstraße 9-------
Biberach Auf dem Lindele-------
Biberach-Bergerhausen Löcherstr.11,74,06,59,50,518,58,5
Bierstetten Schloßbühl 61,76,06,210,30,820,28,0
Blaubeuren-Pappelau Sotzenhauserstr.73,03,06,06,01,511,0-
Regen
Bonndorf Im Tännle 12-------
Bühlertal Wolfinstraße 164,07,06,0--6,017,0
Dornstadt-Tomerdingen Maienweg 92,00,610,02,60,615,09,1
Dürnau Dorfäckerweg 51,55,06,011,00,518,08,5
Regen
Eberhardzell Lilienweg1,75,64,711,20,917,07,5
Regen
Ebersbach-Roßwälden Appenwiesen-------
Ehingen Rosenstraße0,22,55,05,81,017,02,0
Regen
Ehingen Zanderstraße1,12,85,06,31,419,16,6
Regen
Ehingen Schlaufenbühl-3,26,16,11,818,77,6
Regen
Ehingen Schillerstraße0,02,14,95,51,515,56,8
Regen
Ehingen-Herbertshofen Tobelweg 9-------
Eislingen Albstraße 1251,30,44,80,20,16,24,8
Regen
Erbach-Bach Hauptstraße 24--6,05,50,5--
Regen
Erlenmoos Haldenweg 151,83,26,216,40,419,46,8
Regen
Füramoos Hungersberg 11,46,94,86,27,611,014,4
Gutenzell Kleinser Berg 11,52,06,010,5-16,56,5
Gutenzell-Hürbel Bei der Sägmühle 1-------
Herbertingen Drosselweg1,05,07,011,51,018,013,5
Tagsüber immer wieder mal Niederschlag -zumAbend hin dann Dauerregen!
Regen Nieselregen
Herbertingen Hirschstrasse2,04,56,010,0-20,07,0
Regen
Hochdorf-Schweinhausen Lindenweg 21,15,15,614,30,421,610,0
Hohentengen-Bremen Bremer Halde 44,05,06,010,00,219,013,0
Regen
Holzheim-Ellerbach Kirchstraße 3-------
Horgenzell-Ringgenweiler Ringgenweiler 6203,86,59,316,21,128,111,5
Regen
Hüttisheim Ulmer Weg 20,01,05,05,51,013,07,5
Regen
Illerkirchberg Mahdauweg 20-1,85,04,40,812,37,7
Regen Nieselregen
Illerrieden-Wangen Am Muckenberg 12-------
Immenstaad Stockwiesen 10-------
Inzigkofen Butzenweg 12,56,07,59,10,119,015,0
Regen
Schneehöhe: 1-2 cm
Isny Am Dreifingerbach 39-4,67,814,42,412,26,2
Regen Schneeregen Schnee
Schneehöhe: Reste
Kirchberg Rosenstr. 7-3,9-13,5 k0,519,17,0
Regen Schnee
Kreuzthal-Steinberg-Alpe Im Kreuzbachthal 850,67,48,121,84,117,19,8
Regen
Schneehöhe: 16 cm
Langenau Wasserstr. 54-1-------
Langenau Narzissenweg 1-------
Langenenslingen Schattenweiler Str. 181,23,28,28,10,319,110,6
Regen Nieselregen Bodennebel
Schneehöhe: Reste
Leutkirch Unterer Auenweg 251,35,25,019,21,614,56,9
Regen
Leutkirch Nachtigallenweg 281,56,06,021,03,514,06,5
Schneehöhe: Reste
Leutkirch-Adrazhofen Bergstraße 201,06,56,020,02,513,86,8
Regen
Luzern Schönbühlring-------
Merklingen Millergasse 9-------
Mietingen Seerosenweg 10-------
Mietingen-Walpertshofen Bussenweg 31-------
Mittelbiberach-Reute Rindenmooser Straße 21,55,06,512,01,019,210,0
Regen
Moosburg Käserweg 52,02,15,814,01,119,07,1
Vormittags teils sonnige Abschnitte. Nachmittags regnerisch, zum Abend [weiterlesen...]
Münsingen-Bremelau Teichackerhof 1-------
Münsingen-Rietheim In der Lise 200,21,44,62,20,29,26,6
Regen Schneeregen
Schneehöhe: Reste
Neresheim Alfred-Delp-Straße 81,40,35,70,40,010,06,4
Regen
Schneehöhe: "R"
Oberdischingen Normannenstraße 70,02,9--13,120,05,2
Ochsenhausen Ehrensberger Weg 51,69,65,711,90,321,66,4
Regen
Öpfingen Hauptstraße 990,03,06,37,12,016,26,3
Regen Nieselregen Bodennebel Nebelnässe
Ostrach Uhlandweg2,05,07,511,01,019,016,0
Regen
Ostrach Schillerstraße 19-------
Pfaffenhofen Lerchenweg 13-------
Pfaffenhofen-Kadeltshofen Mühlbachstraße 4---31,0---
Pfullendorf Am Schweizersbild 11,85,87,814,80,914,616,2
Rangendingen Donaustraße 193,03,06,03,01,09,015,0
Regen
Ravensburg Bleicherstraße3,57,79,018,91,320,79,3
Ravensburg-Schmalegg St.-Magdalena-Ring 423,87,88,517,02,024,012,0
Ravensburg-Wernsreute Wernsreute 25-------
Ravensburg-Weststadt Karl-Erb-Ring 1423,27,28,521,02,124,09,8
Regen
Regensburg Orleansstraße 3-------
Rheinfelden-Herten Eggbergstr. 10a-------
Riedhausen Blütenweg 132,85,68,04,013,616,216,8
Temp. + 0,7 °C / + 5,1 °C
Regen
Schneehöhe: Reste
Riedlingen Berliner Str. 41-------
Riedlingen-Neufra Panoramaweg17,05,04,011,0-14,011,0
Regen Nieselregen
Schneehöhe: 1 cm
Riedlingen-Neufra Riedlinger Strasse-------
Ringschnait Gustav-Reich-Strasse 20-------
Schelklingen-Gundershofen Schwarzer-Straße 14-2,04,03,0-12,09,0
Temp. zw. -2,6°C und+2,5°C. Morgens Sonne und Wolken. Mittags Eintr [weiterlesen...]
Schneehöhe: Reste
Schemmerberg Drosselweg 91,54,03,29,74,515,18,8
Schlier-Hintermoos Bergweg-------
Schwörstadt Schulstrasse 19-------
Seekirch Haldenberg 7-------
Sigmaringendorf Weingartenstraße 71,95,47,08,4-14,414,9
Regen
Tuttlingen Möhringerstraße 111,45,61,411,20,710,511,9
Regen Schneeregen Schnee
Schneehöhe: 2 cm / Kühltal 5 cm
Ulm Eberhardtstraße 75-------
Ulm-Eggingen Dorfstraße 36-------
Ummendorf Tulpenweg1,25,37,3--36,010,5
Uttenweiler-Ahlen Seekircher Straße 8-5,17,811,10,520,5-
Regen
Vöhringen (Schwarzwald) Drosselweg 3-4,08,06,03,022,018,0
Wald-Hohenzollern Steckeler Höfe-------
Waldburg Kastanienweg112,59,08,220,54,519,57,5
Wangen-Atzenberg Keplerweg 3-------
Wangen-Bergerhöhe Berg 22,28,29,622,04,617,86,8
Regen
Warthausen An der Schloßhalde -21,04,510,5-17,0-
Regen
Warthausen Schwabenwiesen 0,73,55,69,80,718,74,9
Regen
Warthausen-Barabein Barabein 20-------
Warthausen-Oberhöfen Panoramaweg -------
Weingarten Laurastraße6,58,08,016,02,020,07,2
+ 5,3 ° C um 7.00 Uhr, nasse Strassen
Regen Nieselregen
Weingarten Hoyerstraße-------
Weingarten Marienstraße4,08,08,016,01,520,57,5
Regen
Wolfegg-Veesers Veesers 1-------
Wolpertswende Aulendorfer Str. 170,93,14,912,10,418,46,3
Regen
Schneehöhe: -

Stillgelegte Niederschlagsstationen    -    derzeit 51 Stationen

StationLetzte Meldung05.01.06.01.07.01.08.01.09.01.10.01.11.01.Bemerkung 08.01.
Allmannsweiler Eggatsweilerstr.2802.09.2014-------
Aulendorf-Rugetsweiler Erikaweg 325.07.2013-------
Aulendorf-Zollenreute Imterstraße 1209.02.2019-------
Bad Bellingen Rheinstraße 7613.11.2019-------
Bad Saulgau Willi-Burth-Straße19.09.2011-------
Bad Saulgau Eichendorffweg28.03.2013-------
Bad Saulgau Seewattenstraße 12815.01.2014-------
Bad Saulgau-Lampertsweiler Valentinstr. 2618.02.2015-------
Bad Schussenried-Steinhausen Drosselgasse 4/126.09.2012-------
Bad Waldsee-Michelwinnanden Michelberg 531.12.2014-------
Bad Waldsee-Osterhofen Hochwaldgasse 406.03.2015-------
Bad Waldsee-Steinach Hofraingasse 1510.11.2013-------
Bad Wurzach-Dietmanns Postweg 519.01.20191,06,57,016,01,520,09,0
Regen
Bad Wurzach-Haidgau Wengener Straße 507.10.2012-------
Bad Wurzach-Ziegelbach Ziegelbach-Greut 507.11.2014-------
Bergatreute Bolanden 113.02.2012-------
Betzenweiler Offinger Straße 505.01.2017-------
Burgrieden Am Nonnenberg 328.10.2013-------
Burgrieden-Rot Schmiedgasse 518.09.2013-------
Dettingen a. d. Iller Schleifweg 431.10.2019-------
Eberhardzell Schillerstraße05.07.2010-------
Ehingen Am Elzengraben17.06.2016-------
Gammertingen Schillerstraße 2216.01.20161,54,03,09,8-15,312,0
Griesingen Blumenstraße 906.10.2015-------
Günzburg Erlenbadweg 34 1/231.12.2010-------
Hoßkirch Kirchstraße 805.01.20181,85,05,813,51,023,014,5
Regen
Ingoldingen-Grodt Ingoldinger Weg 1919.11.2016-------
Kisslegg Kirchmoosstraße02.05.2011-------
Krauchenwies-Hausen Rosenrain 123.11.2013-------
Kressbronn Irisstraße 410.03.2010-------
Leutkirch-Ottmannshofen Spitalriedstraße 527.07.2012-------
Leutkirch-Rotis Rotis 5/208.05.20162,01,87,35,023,04,811,1
gegen 8.18 Uhr bei minus 0,5 Grad unter zu 'gefühlt' 85% wo [weiterlesen...]
Leutkirch-Wuchzenhofen Untere Kirchstraße 18/119.09.20160,35,36,519,54,114,17,2
Regen
Mietingen Hangweg 1530.12.20170,82,05,07,50,220,51,5
Regen
Mössingen-Bästenhardt Weissdornweg 721.07.2014-------
Ostrach Heiligenberger Straße19.08.2013-------
Pfullendorf Ringstraße 18.03.2012-------
Ravensburg Olgastraße30.10.20162,57,08,217,62,818,58,4
Regen
Seltmans Amselweg 2209.04.2013-------
Stuttgart-Bad Cannstatt Beuthener Str. 6703.02.2013-------
Stuttgart-Möhringen Glashütter Weg 1023.04.20173,01,00,0-0,51,54,0
Dichte Bewölkung und Trocken, + 4°C, 94%->+ 7°C, 1003 hPa.,-> [weiterlesen...]
Stuttgart-Rohr Hirschsprung 307.11.2012-------
Talheim Im Schecken 2121.08.20162,22,94,97,80,77,110,3
Nachts wolkiger bis bedeckter Himmel bei Temperaturen um den Gefrierpu [weiterlesen...]
Regen Schneeregen Schnee
Schneehöhe: Leicht bedeckt
Tannheim Eggmannstr. 42 22.10.20170,34,55,18,70,015,92,7
Tmin +2,9°C__Tmax +7,1°C__24 Std.
Regen Nieselregen
Tettnang-Ramsbach Jahnstr. 24/126.03.2011-------
Tuttlingen-Möhringen Belchenstraße01.01.2015-------
Ummendorf Bergstraße23.10.20172,04,06,010,50,222,09,0
Regen
Ummendorf Friedrich-Schiller-Str.19.01.2020-------
Vogt Mühlwies 1822.05.2015-------
Weingarten Bischof-Sproll-Straße30.06.2011-------
Wilhelmsdorf Riedhauser Straße 28.10.2012-------
Wilhelmsdorf Seefeld20.08.2013-------
Wurmlingen An der Steig 3014.10.2016-------
Die Niederschlagswerte des gewählten Tages lassen sich durch Klicken auf das Datum sortieren.
Die Angaben sind in l/m².

Wetterbeobachtungen Legende:

  • Regen
  • Nieselregen
  • Schneeregen
  • Schnee
  • Graupel
  • Eiskörner
  • Hagel
  • Bodennebel
  • Gewitter
  • Nebelnässe
  • Schneegriesel

Grafische Darstellung der Tagesniederschläge vom 08.01.2016

< 07.01.201609.01.2016 >Monats- und Jahresniederschlag


 
wetterstationen
wetterstationen
- derzeit 88 Stationen
niederschlagsdatenbank
wetterstationen
- kartographische Darstellung
niederschlagsdatenbank
niederschlagsstationen
- derzeit 127 Stationen
niederschlagsdatenbank
niederschlagsstationen
- kartographische Darstellung
 
 
Fr. 8.30 Uhr - Sa. 8.30 Uhr (MESZ)
1.Füramoos
Hungersberg 1
11,0 l/m²
 
  treffpunkt & service
--- Anzeigen --------------------------------
zugriffe:
insgesamt: 49.809.768
aktueller monat: 333.586
heute: 5
momentan online: 4
 
 
monatshöchstwert: 703.589
vorheriger monat: 450.467
gestern: 8.967
tageshöchstwert: 60.571
 
wetterwarte süd
 
konradstraße 3
info@wetterwarte-sued.com
roland roth
 
88427 bad schussenried